createdAt,value
2022-12-13T00:00:22.343Z,65.40
2022-12-13T00:05:57.566Z,65.64
2022-12-13T00:11:18.839Z,66.41
2022-12-13T00:16:39.787Z,65.91
2022-12-13T00:22:00.966Z,64.79
2022-12-13T00:27:22.218Z,64.77
2022-12-13T00:32:43.092Z,65.30
2022-12-13T00:38:03.750Z,65.54
2022-12-13T00:43:24.532Z,65.09
2022-12-13T00:48:50.444Z,64.85
2022-12-13T00:54:11.408Z,65.32
2022-12-13T00:59:31.972Z,65.34
2022-12-13T01:04:52.672Z,65.20
2022-12-13T01:10:13.440Z,64.43
2022-12-13T01:15:34.035Z,64.75
2022-12-13T01:21:04.121Z,65.28
2022-12-13T01:26:24.814Z,65.05
2022-12-13T01:31:45.746Z,65.40
2022-12-13T01:37:06.452Z,64.82
2022-12-13T01:42:27.114Z,64.29
2022-12-13T01:47:53.606Z,63.99
2022-12-13T01:53:18.838Z,63.99
2022-12-13T01:58:40.826Z,63.48
2022-12-13T02:04:02.090Z,63.64
2022-12-13T02:09:23.562Z,64.04
2022-12-13T02:14:44.680Z,64.25
2022-12-13T02:20:26.676Z,63.80
2022-12-13T02:26:05.923Z,63.42
2022-12-13T02:31:45.583Z,63.70
2022-12-13T02:37:35.696Z,64.26
2022-12-13T02:43:09.033Z,63.46
2022-12-13T02:48:38.404Z,63.78
2022-12-13T02:53:59.150Z,64.19
2022-12-13T02:59:20.005Z,63.30
2022-12-13T03:05:03.575Z,63.35
2022-12-13T03:10:33.233Z,62.96
2022-12-13T03:16:00.226Z,64.20
2022-12-13T03:21:21.235Z,63.12
2022-12-13T03:26:42.185Z,63.09
2022-12-13T03:32:04.395Z,63.55
2022-12-13T03:37:25.521Z,63.65
2022-12-13T03:42:47.106Z,63.15
2022-12-13T03:48:08.056Z,62.61
2022-12-13T03:53:33.022Z,62.67
2022-12-13T03:58:55.198Z,63.16
2022-12-13T04:04:15.779Z,63.44
2022-12-13T04:09:36.607Z,63.50
2022-12-13T04:14:57.383Z,62.68
2022-12-13T04:20:18.232Z,62.95
2022-12-13T04:25:40.504Z,62.68
2022-12-13T04:31:01.146Z,62.82
2022-12-13T04:36:31.200Z,62.75
2022-12-13T04:41:53.738Z,62.83
2022-12-13T04:47:14.296Z,62.91
2022-12-13T04:52:35.239Z,62.10
2022-12-13T04:57:56.346Z,62.25
2022-12-13T05:03:17.332Z,62.23
2022-12-13T05:08:38.375Z,62.46
2022-12-13T05:14:00.404Z,61.96
2022-12-13T05:19:21.171Z,61.70
2022-12-13T05:24:51.999Z,62.00
2022-12-13T05:30:13.282Z,62.51
2022-12-13T05:35:34.294Z,61.96
2022-12-13T05:40:55.332Z,61.79
2022-12-13T05:46:16.760Z,61.59
2022-12-13T05:51:37.368Z,61.68
2022-12-13T05:56:58.264Z,61.81
2022-12-13T06:02:21.692Z,61.04
2022-12-13T06:07:42.865Z,61.89
2022-12-13T06:13:21.787Z,61.35
2022-12-13T06:18:45.984Z,60.79
2022-12-13T06:24:11.333Z,60.59
2022-12-13T06:29:32.129Z,60.70
2022-12-13T06:34:52.792Z,61.12
2022-12-13T06:40:22.859Z,60.75
2022-12-13T06:45:43.830Z,60.51
2022-12-13T06:51:05.324Z,61.03
2022-12-13T06:56:26.288Z,60.86
2022-12-13T07:01:50.497Z,60.33
2022-12-13T07:07:11.403Z,61.24
2022-12-13T07:12:32.866Z,61.68
2022-12-13T07:17:53.770Z,61.49
2022-12-13T07:23:14.439Z,61.20
2022-12-13T07:28:37.140Z,61.40
2022-12-13T07:33:57.823Z,61.96
2022-12-13T07:39:18.571Z,62.55
2022-12-13T07:44:39.144Z,62.50
2022-12-13T07:49:59.750Z,62.93
2022-12-13T07:55:23.322Z,62.75
2022-12-13T08:01:03.020Z,62.12
2022-12-13T08:06:24.221Z,62.03
2022-12-13T08:11:44.874Z,62.21
2022-12-13T08:17:05.638Z,62.40
2022-12-13T08:22:26.346Z,62.11
2022-12-13T08:27:47.118Z,62.70
2022-12-13T08:33:07.892Z,62.93
2022-12-13T08:38:28.897Z,62.46
2022-12-13T08:43:49.702Z,62.66
2022-12-13T08:49:11.791Z,62.70
2022-12-13T08:54:35.808Z,62.98
2022-12-13T08:59:56.957Z,62.97
2022-12-13T09:05:33.479Z,63.99
2022-12-13T09:11:00.203Z,63.89
2022-12-13T09:16:24.901Z,64.58
2022-12-13T09:21:46.346Z,64.60
2022-12-13T09:27:10.279Z,64.66
2022-12-13T09:32:31.741Z,64.97
2022-12-13T09:37:52.633Z,64.83
2022-12-13T09:43:31.718Z,64.65
2022-12-13T09:49:01.513Z,65.34
2022-12-13T09:54:25.673Z,65.47
2022-12-13T09:59:47.710Z,65.52
2022-12-13T10:05:21.832Z,65.15
2022-12-13T10:10:45.459Z,65.83
2022-12-13T10:16:36.312Z,66.38
2022-12-13T10:22:02.211Z,66.19
2022-12-13T10:27:29.338Z,66.34
2022-12-13T10:33:02.715Z,66.93
2022-12-13T10:38:32.003Z,66.88
2022-12-13T10:44:12.927Z,66.62
2022-12-13T10:49:40.513Z,66.81
2022-12-13T10:55:22.808Z,67.09
2022-12-13T11:00:47.105Z,66.50
2022-12-13T11:06:16.641Z,66.77
2022-12-13T11:11:37.397Z,66.54
2022-12-13T11:17:10.521Z,66.95
2022-12-13T11:22:37.533Z,66.78
2022-12-13T11:28:01.233Z,66.99
2022-12-13T11:33:49.109Z,67.09
2022-12-13T11:39:19.696Z,66.78
2022-12-13T11:44:48.069Z,67.09
2022-12-13T11:50:33.354Z,67.28
2022-12-13T11:55:58.043Z,68.13
2022-12-13T12:01:27.877Z,67.80
2022-12-13T12:07:30.659Z,67.66
2022-12-13T12:12:55.651Z,67.56
2022-12-13T12:18:17.000Z,67.36
2022-12-13T12:24:20.222Z,67.08
2022-12-13T12:30:01.851Z,66.48
2022-12-13T12:35:39.222Z,66.19
2022-12-13T12:41:28.551Z,66.72
2022-12-13T12:53:13.836Z,67.20
2022-12-13T12:58:34.867Z,66.80
2022-12-13T13:04:02.071Z,67.38
2022-12-13T13:09:24.393Z,67.05
2022-12-13T13:14:45.649Z,67.29
2022-12-13T13:20:23.598Z,67.25
2022-12-13T13:26:15.956Z,67.30
2022-12-13T13:32:05.451Z,67.30
2022-12-13T13:37:48.183Z,67.14
2022-12-13T13:43:12.212Z,66.98
2022-12-13T13:48:56.699Z,67.61
2022-12-13T13:54:45.585Z,68.07
2022-12-13T14:00:29.872Z,67.08
2022-12-13T14:06:21.449Z,66.78
2022-12-13T14:12:12.820Z,66.98
2022-12-13T14:18:01.200Z,67.22
2022-12-13T14:23:46.807Z,67.86
2022-12-13T14:29:15.346Z,67.71
2022-12-13T14:34:37.551Z,67.33
2022-12-13T14:40:22.954Z,67.89
2022-12-13T14:45:43.810Z,67.95
2022-12-13T14:51:04.903Z,67.92
2022-12-13T14:56:28.389Z,68.25
2022-12-13T15:02:05.539Z,67.87
2022-12-13T15:07:35.904Z,67.87
2022-12-13T15:12:58.237Z,67.97
2022-12-13T15:18:20.276Z,68.04
2022-12-13T15:23:53.139Z,68.15
2022-12-13T15:29:21.333Z,67.36
2022-12-13T15:34:46.331Z,67.09
2022-12-13T15:40:08.889Z,67.18
2022-12-13T15:45:36.694Z,67.24
2022-12-13T15:51:09.636Z,66.82
2022-12-13T15:56:33.689Z,66.20
2022-12-13T16:01:58.522Z,65.48
2022-12-13T16:07:32.261Z,68.62
2022-12-13T16:13:02.537Z,65.03
2022-12-13T16:18:41.562Z,65.09
2022-12-13T16:24:03.635Z,65.10
2022-12-13T16:29:24.652Z,71.24
2022-12-13T16:34:45.535Z,66.66
2022-12-13T16:40:30.007Z,64.82
2022-12-13T16:45:53.434Z,64.02
2022-12-13T16:51:14.012Z,63.81
2022-12-13T16:56:34.857Z,63.51
2022-12-13T17:01:56.158Z,63.56
2022-12-13T17:07:16.923Z,63.82
2022-12-13T17:12:37.578Z,64.04
2022-12-13T17:17:58.606Z,63.56
2022-12-13T17:23:19.625Z,63.20
2022-12-13T17:28:40.329Z,63.42
2022-12-13T17:34:01.334Z,63.81
2022-12-13T17:39:22.962Z,62.24
2022-12-13T17:44:43.752Z,62.05
2022-12-13T17:50:04.847Z,63.14
2022-12-13T17:55:25.432Z,62.18
2022-12-13T18:00:45.962Z,61.93
2022-12-13T18:06:07.434Z,62.26
2022-12-13T18:11:33.329Z,61.95
2022-12-13T18:16:54.777Z,61.45
2022-12-13T18:22:15.618Z,62.02
2022-12-13T18:27:36.329Z,61.62
2022-12-13T18:32:57.483Z,61.13
2022-12-13T18:38:18.143Z,61.65
2022-12-13T18:43:38.925Z,61.61
2022-12-13T18:48:59.823Z,61.50
2022-12-13T18:54:20.654Z,61.82
2022-12-13T18:59:41.416Z,61.55
2022-12-13T19:05:15.157Z,61.60
2022-12-13T19:10:36.049Z,61.77
2022-12-13T19:15:58.424Z,60.81
2022-12-13T19:21:21.531Z,61.65
2022-12-13T19:26:42.150Z,61.82
2022-12-13T19:32:03.118Z,62.12
2022-12-13T19:37:24.896Z,62.17
2022-12-13T19:42:45.844Z,62.21
2022-12-13T19:48:06.391Z,61.42
2022-12-13T19:53:30.987Z,62.04
2022-12-13T19:58:51.770Z,60.96
2022-12-13T20:04:12.654Z,61.94
2022-12-13T20:09:33.503Z,61.79
2022-12-13T20:14:54.080Z,61.68
2022-12-13T20:20:14.933Z,65.81
2022-12-13T20:25:35.564Z,61.84
2022-12-13T20:31:28.096Z,61.73
2022-12-13T20:36:50.148Z,61.11
2022-12-13T20:42:11.290Z,61.15
2022-12-13T20:47:37.623Z,60.59
2022-12-13T20:52:59.410Z,60.98
2022-12-13T20:58:20.336Z,61.25
2022-12-13T21:03:41.250Z,61.55
2022-12-13T21:09:04.091Z,61.40
2022-12-13T21:14:28.539Z,61.60
2022-12-13T21:19:49.237Z,61.43
2022-12-13T21:25:10.042Z,61.32
2022-12-13T21:30:30.751Z,61.82
2022-12-13T21:35:51.303Z,61.23
2022-12-13T21:41:12.191Z,60.96
2022-12-13T21:47:10.153Z,61.05
2022-12-13T21:52:13.885Z,60.94
2022-12-13T21:57:53.355Z,61.14
2022-12-13T22:03:14.340Z,61.72
2022-12-13T22:08:35.087Z,61.91
2022-12-13T22:13:56.907Z,62.07
2022-12-13T22:19:18.149Z,61.56
2022-12-13T22:24:38.853Z,61.69
2022-12-13T22:29:59.719Z,62.25
2022-12-13T22:35:20.751Z,62.61
2022-12-13T22:40:41.272Z,63.44
2022-12-13T22:46:04.083Z,63.21
2022-12-13T22:51:25.268Z,62.68
2022-12-13T22:56:49.618Z,63.49
2022-12-13T23:02:10.659Z,64.00
2022-12-13T23:07:31.756Z,63.26
2022-12-13T23:13:04.579Z,63.35
2022-12-13T23:18:25.824Z,63.93
2022-12-13T23:23:47.072Z,63.79
2022-12-13T23:29:09.296Z,63.73
2022-12-13T23:34:30.264Z,63.87
2022-12-13T23:39:51.055Z,64.17
2022-12-13T23:45:11.793Z,63.72
2022-12-13T23:50:32.769Z,63.75
2022-12-13T23:55:53.502Z,63.41
